Time;durP1;ratioP1;P1;durP2;ratioP2;P2;SDS_P1;SDS_P2;PMS_P1;PMS_P2;Temp;Humidity;BMP_temperature;BMP_pressure;BME280_temperature;BME280_humidity;BME280_pressure;Samples;Min_cycle;Max_cycle;Signal;HPM_P1;HPM_P2
2022/03/13 00:01:03;;;;;;;17.12;7.57;;;;;;;-0.01;40.27;101203.50;4350402;32;33329;-90
2022/03/13 00:03:32;;;;;;;20.17;8.85;;;;;;;-0.17;40.94;101195.38;4363334;32;32569;-89
2022/03/13 00:06:14;;;;;;;16.15;7.53;;;;;;;-0.09;40.26;101199.03;4352003;32;32755;-89
2022/03/13 00:08:43;;;;;;;19.42;8.50;;;;;;;-0.48;41.38;101207.63;4361352;32;33382;-87
2022/03/13 00:11:17;;;;;;;24.60;8.70;;;;;;;-0.04;40.40;101194.81;4361047;32;33182;-88
2022/03/13 00:13:50;;;;;;;18.80;9.02;;;;;;;0.01;40.10;101190.59;4359510;32;33712;-87
2022/03/13 00:16:19;;;;;;;24.75;10.05;;;;;;;0.01;40.06;101189.72;4354941;32;33561;-87
2022/03/13 00:18:47;;;;;;;24.75;9.93;;;;;;;-0.68;41.85;101186.41;4354885;32;34031;-87
2022/03/13 00:21:18;;;;;;;23.73;9.38;;;;;;;-0.52;42.05;101198.03;4360996;32;34047;-87
2022/03/13 00:23:47;;;;;;;24.55;10.40;;;;;;;-0.42;41.47;101187.03;4367812;32;32343;-87
2022/03/13 00:26:16;;;;;;;24.83;11.32;;;;;;;-0.39;41.35;101188.81;4360472;32;33073;-87
2022/03/13 00:28:45;;;;;;;24.25;10.70;;;;;;;-0.39;41.10;101181.91;4348361;32;33991;-87
2022/03/13 00:31:13;;;;;;;25.37;9.63;;;;;;;-0.51;41.75;101189.41;4354346;32;32787;-87
2022/03/13 00:33:41;;;;;;;19.45;8.65;;;;;;;-0.39;41.16;101183.63;4355199;32;33855;-87
2022/03/13 00:36:08;;;;;;;20.15;8.80;;;;;;;-0.30;40.82;101178.63;4360532;32;32800;-87
2022/03/13 00:38:36;;;;;;;25.33;10.20;;;;;;;-0.80;43.01;101187.00;4347311;32;33406;-87
2022/03/13 00:41:04;;;;;;;22.40;8.93;;;;;;;-0.86;43.02;101181.63;4347868;32;33921;-87
2022/03/13 00:43:32;;;;;;;27.08;10.82;;;;;;;-0.70;42.65;101187.22;4353493;32;33723;-87
2022/03/13 00:46:00;;;;;;;28.00;10.15;;;;;;;-0.84;42.99;101189.47;4359310;32;33869;-90
2022/03/13 00:48:47;;;;;;;20.10;10.07;;;;;;;-0.63;42.35;101183.94;4347516;33;32859;-90
2022/03/13 00:51:35;;;;;;;21.45;8.77;;;;;;;-0.60;42.21;101179.69;4361152;32;33336;-88
2022/03/13 00:54:24;;;;;;;23.35;9.05;;;;;;;-0.53;41.82;101185.87;4346254;33;32791;-91
2022/03/13 00:56:57;;;;;;;28.48;10.25;;;;;;;-0.97;43.11;101192.59;4346312;33;33146;-89
2022/03/13 00:59:24;;;;;;;24.15;11.32;;;;;;;-0.70;42.59;101193.28;4348994;32;33317;-90
2022/03/13 01:01:52;;;;;;;23.30;10.23;;;;;;;-0.74;42.51;101181.09;4351896;32;33919;-90
2022/03/13 01:04:20;;;;;;;26.67;10.45;;;;;;;-0.70;42.39;101172.53;4333678;33;33862;-90
2022/03/13 01:06:48;;;;;;;23.15;9.75;;;;;;;-0.85;42.67;101173.06;4345528;33;33828;-90
2022/03/13 01:09:16;;;;;;;17.73;9.30;;;;;;;-1.07;43.13;101181.12;4332907;32;33369;-89
2022/03/13 01:11:44;;;;;;;30.17;10.48;;;;;;;-0.86;42.59;101173.00;4357862;32;33453;-87
2022/03/13 01:14:12;;;;;;;27.25;10.13;;;;;;;-1.19;43.77;101175.59;4356992;32;33584;-87
2022/03/13 01:16:41;;;;;;;28.15;9.23;;;;;;;-1.29;44.05;101175.38;4356835;32;33553;-87
2022/03/13 01:19:08;;;;;;;27.15;7.95;;;;;;;-0.84;42.88;101173.91;4356490;32;33287;-87
2022/03/13 01:21:38;;;;;;;25.88;9.90;;;;;;;-1.25;43.76;101170.28;4345916;33;34221;-90
2022/03/13 01:24:17;;;;;;;19.37;8.48;;;;;;;-1.02;43.40;101161.38;4311752;33;32569;-90
2022/03/13 01:26:52;;;;;;;28.65;10.85;;;;;;;-0.84;42.67;101171.31;4337016;33;33031;-90
2022/03/13 01:29:20;;;;;;;29.12;9.90;;;;;;;-0.70;42.26;101166.47;4334148;33;34069;-90
2022/03/13 01:31:49;;;;;;;20.58;10.00;;;;;;;-0.87;42.75;101164.34;4352103;32;33035;-89
2022/03/13 01:38:39;;;;;;;17.15;8.55;;;;;;;-0.91;42.52;101172.87;4350393;33;34556;-90
2022/03/13 01:41:07;;;;;;;20.45;8.63;;;;;;;-1.06;42.99;101172.50;4361141;32;34390;-90
2022/03/13 01:43:36;;;;;;;21.83;9.50;;;;;;;-1.13;43.37;101170.59;4348939;33;33027;-90
2022/03/13 01:46:04;;;;;;;18.40;8.88;;;;;;;-1.12;43.18;101173.22;4361029;32;33048;-90
2022/03/13 01:48:39;;;;;;;23.48;9.15;;;;;;;-1.36;44.01;101168.28;4335837;33;32977;-87
2022/03/13 01:51:06;;;;;;;21.27;8.52;;;;;;;-1.09;43.10;101157.75;4347640;33;33404;-87
2022/03/13 01:53:34;;;;;;;20.62;8.70;;;;;;;-1.09;43.08;101162.06;4360117;32;33036;-88
2022/03/13 01:56:02;;;;;;;20.23;8.70;;;;;;;-1.07;42.85;101155.19;4335484;33;33211;-87
2022/03/13 01:58:30;;;;;;;29.90;10.43;;;;;;;-1.34;43.92;101158.81;4335836;33;32681;-87
2022/03/13 02:00:58;;;;;;;22.67;8.95;;;;;;;-1.62;44.83;101153.75;4333191;33;34134;-88
2022/03/13 02:03:26;;;;;;;19.33;8.98;;;;;;;-1.45;44.50;101157.69;4360145;32;34319;-91
2022/03/13 02:06:03;;;;;;;27.42;8.50;;;;;;;-1.31;43.86;101156.31;4337919;33;32635;-90
2022/03/13 02:08:45;;;;;;;40.00;14.10;;;;;;;-1.43;44.24;101153.41;4342721;32;32358;-90
2022/03/13 02:11:19;;;;;;;34.60;12.55;;;;;;;-1.44;44.29;101148.19;4336622;33;32926;-90
2022/03/13 02:13:48;;;;;;;28.30;12.65;;;;;;;-1.33;43.95;101146.75;4348661;33;32875;-91
2022/03/13 02:16:17;;;;;;;34.70;13.43;;;;;;;-1.22;43.57;101145.31;4336466;33;33269;-90
2022/03/13 02:18:48;;;;;;;48.83;18.08;;;;;;;-1.34;43.94;101142.41;4336612;33;33182;-90
2022/03/13 02:21:17;;;;;;;41.25;15.98;;;;;;;-1.16;43.42;101139.41;4336516;33;32533;-90
2022/03/13 02:23:49;;;;;;;39.13;14.38;;;;;;;-1.47;44.47;101141.22;4324891;32;33235;-88
2022/03/13 02:26:20;;;;;;;36.35;15.10;;;;;;;-1.64;44.83;101139.88;4346526;32;32194;-87
2022/03/13 02:28:53;;;;;;;31.60;11.77;;;;;;;-1.46;44.29;101140.38;4346756;33;32674;-88
2022/03/13 02:31:30;;;;;;;34.50;13.07;;;;;;;-1.33;44.08;101134.69;4347101;33;33250;-88
2022/03/13 02:34:00;;;;;;;26.00;11.30;;;;;;;-1.53;44.43;101135.84;4341774;32;33295;-88
2022/03/13 02:36:31;;;;;;;30.40;11.18;;;;;;;-1.56;44.70;101140.97;4346283;33;32971;-88
2022/03/13 02:39:06;;;;;;;34.92;12.45;;;;;;;-1.59;44.81;101139.16;4341075;33;33283;-88
2022/03/13 02:41:34;;;;;;;24.85;11.30;;;;;;;-1.49;44.59;101137.69;4358863;32;33623;-87
2022/03/13 02:44:02;;;;;;;36.75;14.27;;;;;;;-1.42;44.57;101137.03;4352927;32;33050;-87
2022/03/13 02:46:55;;;;;;;31.92;11.52;;;;;;;-1.79;45.67;101135.16;4345771;32;34186;-88
2022/03/13 02:49:25;;;;;;;20.08;9.98;;;;;;;-1.68;45.53;101127.69;4339797;33;34289;-88
2022/03/13 02:51:58;;;;;;;27.30;10.35;;;;;;;-1.73;45.19;101137.03;4342574;33;33563;-87
2022/03/13 02:54:27;;;;;;;19.33;7.15;;;;;;;-1.85;45.53;101130.72;4358800;32;33790;-87
2022/03/13 02:56:55;;;;;;;24.67;10.02;;;;;;;-1.73;45.35;101129.28;4334514;33;33574;-87
2022/03/13 02:59:23;;;;;;;25.92;10.82;;;;;;;-1.70;45.18;101129.38;4339489;33;33619;-88
2022/03/13 03:01:51;;;;;;;36.38;12.15;;;;;;;-1.67;44.92;101126.84;4345819;33;32535;-87
2022/03/13 03:04:23;;;;;;;29.25;11.15;;;;;;;-1.51;44.56;101125.56;4359087;32;33914;-87
2022/03/13 03:07:04;;;;;;;30.95;11.88;;;;;;;-1.65;44.63;101130.38;4357969;32;33095;-86
2022/03/13 03:09:33;;;;;;;31.62;12.75;;;;;;;-1.88;45.65;101120.25;4370502;32;33041;-86
2022/03/13 03:12:04;;;;;;;28.62;11.55;;;;;;;-2.02;46.17;101126.75;4333719;33;32785;-87
2022/03/13 03:14:32;;;;;;;29.17;11.85;;;;;;;-1.85;45.86;101130.72;4334009;33;34281;-87
2022/03/13 03:17:00;;;;;;;29.92;11.50;;;;;;;-1.78;45.53;101125.69;4346246;32;32830;-87
2022/03/13 03:19:28;;;;;;;26.55;10.55;;;;;;;-1.83;45.40;101123.84;4342388;32;33365;-86
2022/03/13 03:21:56;;;;;;;25.23;9.85;;;;;;;-1.62;44.63;101122.66;4359075;32;33970;-86
2022/03/13 03:24:25;;;;;;;25.37;11.60;;;;;;;-1.97;45.60;101114.81;4333775;33;34282;-85
2022/03/13 03:26:57;;;;;;;27.92;11.68;;;;;;;-1.84;45.19;101119.50;4347027;33;33034;-86
2022/03/13 03:29:25;;;;;;;25.10;11.25;;;;;;;-1.73;45.23;101113.75;4359795;32;33804;-87
2022/03/13 03:31:54;;;;;;;29.60;12.37;;;;;;;-1.99;45.85;101111.31;4344908;33;33122;-87
2022/03/13 03:34:25;;;;;;;25.48;9.80;;;;;;;-2.02;46.09;101116.41;4332887;33;33719;-87
2022/03/13 03:36:56;;;;;;;25.65;10.40;;;;;;;-2.14;46.46;101110.88;4346451;33;32143;-87
2022/03/13 03:39:28;;;;;;;26.62;11.23;;;;;;;-2.18;46.66;101109.94;4335261;33;32674;-88
2022/03/13 03:41:58;;;;;;;26.65;10.68;;;;;;;-2.40;47.24;101105.81;4347591;33;34152;-88
2022/03/13 03:44:25;;;;;;;32.28;11.27;;;;;;;-2.20;46.86;101110.69;4332480;33;33375;-87
2022/03/13 03:46:55;;;;;;;19.30;10.05;;;;;;;-2.35;47.59;101101.66;4334316;33;32653;-88
2022/03/13 03:49:23;;;;;;;26.00;10.18;;;;;;;-2.35;47.27;101099.06;4335697;33;32893;-88
2022/03/13 03:51:52;;;;;;;27.17;10.55;;;;;;;-2.15;46.66;101093.59;4332631;33;34296;-88
2022/03/13 03:54:19;;;;;;;22.15;8.95;;;;;;;-2.06;46.14;101094.72;4332435;33;32849;-87
2022/03/13 03:56:47;;;;;;;20.90;9.40;;;;;;;-2.38;47.04;101103.28;4347740;32;32930;-87
2022/03/13 03:59:15;;;;;;;24.48;9.30;;;;;;;-2.21;46.73;101096.88;4347489;32;33265;-87
2022/03/13 04:01:43;;;;;;;23.33;10.20;;;;;;;-2.19;46.23;101096.91;4323832;32;33588;-87
2022/03/13 04:04:17;;;;;;;18.05;9.82;;;;;;;-2.06;45.95;101099.91;4323949;33;33472;-87
2022/03/13 04:06:45;;;;;;;25.95;10.68;;;;;;;-2.25;46.55;101112.28;4347615;32;33637;-89
2022/03/13 04:09:13;;;;;;;22.42;10.30;;;;;;;-2.13;46.24;101107.47;4323622;33;32881;-89
2022/03/13 04:11:41;;;;;;;28.60;11.48;;;;;;;-2.08;46.01;101100.72;4347445;32;32999;-89
2022/03/13 04:14:11;;;;;;;38.33;12.60;;;;;;;-2.28;46.53;101097.53;4347736;32;33553;-89
2022/03/13 04:16:39;;;;;;;24.73;10.35;;;;;;;-2.09;45.96;101093.75;4355923;32;32411;-89
2022/03/13 04:19:09;;;;;;;28.55;11.65;;;;;;;-2.32;46.85;101094.00;4322532;33;33835;-87
2022/03/13 04:21:40;;;;;;;24.12;9.77;;;;;;;-2.38;46.96;101086.03;4349823;32;33121;-88
2022/03/13 04:24:11;;;;;;;31.80;11.40;;;;;;;-2.06;46.26;101086.09;4349443;32;33163;-88
2022/03/13 04:26:39;;;;;;;22.92;8.73;;;;;;;-2.16;46.40;101086.66;4341842;33;33532;-89
2022/03/13 04:29:09;;;;;;;22.42;10.32;;;;;;;-2.12;46.20;101093.69;4341101;32;32968;-87
2022/03/13 04:31:40;;;;;;;26.20;10.52;;;;;;;-2.15;46.04;101091.00;4358033;32;33931;-88
2022/03/13 04:34:15;;;;;;;22.80;10.88;;;;;;;-2.22;46.34;101086.50;4346258;32;33735;-86
2022/03/13 04:36:44;;;;;;;16.95;9.02;;;;;;;-2.11;46.05;101088.53;4344985;32;32417;-86
2022/03/13 04:39:11;;;;;;;23.92;9.55;;;;;;;-2.20;46.32;101082.25;4344932;33;32441;-87
2022/03/13 04:41:39;;;;;;;21.40;10.27;;;;;;;-2.40;46.87;101087.72;4345285;32;33588;-87
2022/03/13 04:44:14;;;;;;;19.58;8.27;;;;;;;-2.42;47.17;101086.81;4345730;33;33409;-87
2022/03/13 04:46:42;;;;;;;27.42;10.85;;;;;;;-2.33;46.87;101079.31;4334937;33;32690;-87
2022/03/13 04:49:11;;;;;;;21.75;8.60;;;;;;;-2.26;46.60;101075.19;4345737;32;32843;-87
2022/03/13 04:51:40;;;;;;;15.75;9.23;;;;;;;-2.45;47.31;101083.25;4332623;33;32841;-87
2022/03/13 04:54:08;;;;;;;17.48;9.57;;;;;;;-2.32;46.78;101075.88;4357458;32;33281;-87
2022/03/13 04:56:37;;;;;;;18.52;8.48;;;;;;;-2.36;47.16;101084.37;4332994;33;32962;-87
2022/03/13 04:59:07;;;;;;;18.20;9.10;;;;;;;-2.39;47.08;101079.12;4359033;32;33559;-87
2022/03/13 05:01:35;;;;;;;20.58;8.55;;;;;;;-2.60;47.86;101073.34;4359537;32;33391;-87
2022/03/13 05:04:05;;;;;;;20.02;9.95;;;;;;;-2.50;47.52;101077.06;4335449;33;33202;-87
2022/03/13 05:06:38;;;;;;;22.00;11.00;;;;;;;-2.68;47.59;101077.37;4359907;32;33642;-87
2022/03/13 05:09:06;;;;;;;22.45;10.00;;;;;;;-2.46;47.46;101072.03;4369804;32;34154;-87
2022/03/13 05:11:34;;;;;;;28.35;12.45;;;;;;;-2.26;46.79;101075.19;4335786;33;33100;-87
2022/03/13 05:14:01;;;;;;;23.23;10.32;;;;;;;-2.25;46.63;101076.06;4359994;32;34059;-87
2022/03/13 05:16:29;;;;;;;25.30;10.13;;;;;;;-2.27;46.76;101090.66;4347394;33;33581;-87
2022/03/13 05:18:57;;;;;;;28.95;12.25;;;;;;;-2.20;46.78;101087.41;4359933;32;33768;-86
2022/03/13 05:21:24;;;;;;;34.53;12.02;;;;;;;-2.12;46.42;101093.69;4332989;33;34562;-86
2022/03/13 05:23:53;;;;;;;25.15;11.30;;;;;;;-1.96;46.16;101100.16;4345191;33;34151;-86
2022/03/13 05:26:21;;;;;;;24.87;10.18;;;;;;;-1.89;45.83;101096.94;4351496;32;34363;-86
2022/03/13 05:28:49;;;;;;;20.27;9.07;;;;;;;-2.25;47.01;101092.44;4345263;33;33784;-86
2022/03/13 05:31:17;;;;;;;19.33;8.70;;;;;;;-2.32;47.70;101090.53;4358665;32;33690;-86
2022/03/13 05:33:44;;;;;;;26.60;10.15;;;;;;;-2.34;47.94;101092.19;4340478;33;34355;-86
2022/03/13 05:36:13;;;;;;;19.25;9.65;;;;;;;-2.49;48.24;101091.75;4357485;32;32889;-86
2022/03/13 05:38:41;;;;;;;25.90;10.50;;;;;;;-2.46;48.89;101090.13;4346518;32;32823;-86
2022/03/13 05:41:09;;;;;;;24.77;10.88;;;;;;;-2.28;48.43;101094.06;4346956;32;34022;-86
2022/03/13 05:43:40;;;;;;;32.22;12.10;;;;;;;-2.28;48.42;101091.47;4356427;32;32670;-85
2022/03/13 05:46:08;;;;;;;28.60;11.93;;;;;;;-2.05;47.31;101095.59;4346413;33;32197;-86
2022/03/13 05:48:36;;;;;;;18.33;9.77;;;;;;;-1.97;46.97;101093.25;4345225;32;33684;-85
2022/03/13 05:51:04;;;;;;;19.30;8.57;;;;;;;-1.81;46.80;101093.69;4353209;32;34140;-85
2022/03/13 05:53:33;;;;;;;17.17;8.55;;;;;;;-1.89;47.26;101090.03;4358559;32;34129;-85
2022/03/13 05:56:00;;;;;;;25.20;9.52;;;;;;;-1.77;47.49;101096.38;4337238;33;31333;-86
2022/03/13 05:58:29;;;;;;;23.38;10.38;;;;;;;-1.68;47.26;101094.03;4345950;33;33167;-86
2022/03/13 06:01:08;;;;;;;24.77;10.13;;;;;;;-1.53;46.60;101086.66;4345664;33;34577;-86
2022/03/13 06:03:38;;;;;;;23.40;8.65;;;;;;;-1.50;45.69;101093.63;4347266;32;33777;-86
2022/03/13 06:06:06;;;;;;;22.75;9.43;;;;;;;-1.31;45.13;101083.78;4347121;32;34275;-87
2022/03/13 06:08:34;;;;;;;27.65;9.10;;;;;;;-1.14;44.01;101088.47;4347104;32;33808;-87
2022/03/13 06:11:02;;;;;;;26.33;9.73;;;;;;;-1.12;44.41;101094.59;4333425;33;34362;-86
2022/03/13 06:13:30;;;;;;;18.48;8.98;;;;;;;-0.92;43.48;101095.06;4359554;32;33412;-89
2022/03/13 06:15:58;;;;;;;25.50;9.65;;;;;;;-1.01;42.64;101098.31;4360436;32;32532;-89
2022/03/13 06:18:31;;;;;;;21.20;9.52;;;;;;;-0.95;42.17;101098.47;4347727;33;32625;-86
2022/03/13 06:20:59;;;;;;;24.17;11.07;;;;;;;-0.74;41.65;101098.09;4359279;32;33456;-86
2022/03/13 06:23:29;;;;;;;32.58;11.27;;;;;;;-0.81;43.08;101098.78;4344600;32;34335;-86
2022/03/13 06:26:00;;;;;;;22.95;11.20;;;;;;;-0.68;42.73;101092.16;4350185;32;33432;-86
2022/03/13 06:28:28;;;;;;;38.10;13.07;;;;;;;-0.54;42.42;101101.13;4334183;33;32031;-85
2022/03/13 06:30:55;;;;;;;33.22;13.50;;;;;;;-0.45;42.35;101092.66;4334230;33;32747;-85
2022/03/13 06:33:25;;;;;;;23.98;12.98;;;;;;;-0.22;42.01;101094.03;4351577;32;33490;-85
2022/03/13 06:35:54;;;;;;;37.38;10.95;;;;;;;0.37;41.80;101098.63;4346091;33;34656;-86
2022/03/13 06:38:22;;;;;;;22.25;9.65;;;;;;;0.55;41.32;101096.38;4358125;32;32610;-85
2022/03/13 06:40:50;;;;;;;28.73;12.50;;;;;;;0.69;40.75;101094.00;4333040;33;33049;-84
2022/03/13 06:43:18;;;;;;;26.98;11.25;;;;;;;0.90;40.05;101093.47;4345684;33;32946;-85
2022/03/13 06:45:46;;;;;;;25.23;10.60;;;;;;;1.06;39.20;101100.69;4346151;33;34318;-85
2022/03/13 06:48:15;;;;;;;24.52;10.32;;;;;;;1.05;38.83;101101.56;4349940;32;32725;-85
2022/03/13 06:50:44;;;;;;;21.08;9.73;;;;;;;1.08;38.79;101109.38;4345681;32;33115;-85
2022/03/13 06:53:11;;;;;;;16.20;7.32;;;;;;;1.37;37.85;101109.81;4333082;33;32739;-85
2022/03/13 06:55:40;;;;;;;11.30;6.47;;;;;;;1.47;37.38;101110.84;4357893;32;34215;-85
2022/03/13 06:58:08;;;;;;;9.88;4.53;;;;;;;1.49;38.53;101109.16;4345888;32;34607;-85
2022/03/13 07:00:35;;;;;;;17.23;6.30;;;;;;;1.66;37.05;101111.97;4345838;32;34187;-85
2022/03/13 07:03:05;;;;;;;8.73;5.00;;;;;;;1.73;37.21;101106.88;4349689;32;34103;-85
2022/03/13 07:05:33;;;;;;;12.63;4.90;;;;;;;1.70;35.70;101104.22;4333800;33;34191;-86
2022/03/13 07:08:01;;;;;;;13.60;5.35;;;;;;;1.91;34.45;101105.38;4331295;33;33124;-86
2022/03/13 07:10:28;;;;;;;10.82;5.03;;;;;;;1.94;34.25;101106.25;4330945;33;34316;-86
2022/03/13 07:12:57;;;;;;;11.85;5.62;;;;;;;2.13;33.24;101102.13;4346375;32;33879;-86
2022/03/13 07:15:26;;;;;;;13.18;5.82;;;;;;;2.38;32.95;101107.66;4370529;32;33168;-86
2022/03/13 07:17:54;;;;;;;16.17;7.87;;;;;;;2.56;32.47;101102.59;4334363;33;32766;-87
2022/03/13 07:20:22;;;;;;;12.55;6.78;;;;;;;2.42;32.83;101098.97;4358118;32;32449;-86
2022/03/13 07:22:50;;;;;;;11.63;5.82;;;;;;;2.38;33.29;101097.22;4332951;32;34352;-87
2022/03/13 07:25:18;;;;;;;13.82;7.20;;;;;;;2.90;33.01;101092.50;4334539;33;32189;-86
2022/03/13 07:27:46;;;;;;;11.00;5.70;;;;;;;3.18;32.98;101094.44;4346948;33;32984;-85
2022/03/13 07:30:14;;;;;;;13.77;7.18;;;;;;;3.33;31.65;101089.31;4359162;32;32924;-87
2022/03/13 07:32:43;;;;;;;14.23;6.37;;;;;;;3.34;31.89;101096.28;4345106;33;33862;-86
2022/03/13 07:35:12;;;;;;;14.13;5.50;;;;;;;3.49;32.83;101089.41;4333292;33;34139;-86
2022/03/13 07:37:43;;;;;;;15.55;6.90;;;;;;;3.60;32.21;101098.16;4333386;33;34427;-85
2022/03/13 07:40:13;;;;;;;13.07;6.68;;;;;;;3.80;30.33;101096.56;4343478;33;34141;-85
2022/03/13 07:42:40;;;;;;;14.65;7.12;;;;;;;4.13;29.69;101100.16;4352951;32;33245;-86
2022/03/13 07:45:10;;;;;;;14.73;7.55;;;;;;;4.04;29.67;101093.16;4331567;33;32634;-86
2022/03/13 07:47:38;;;;;;;16.23;7.55;;;;;;;4.37;30.56;101095.00;4343499;32;33851;-86
2022/03/13 07:50:07;;;;;;;15.57;7.28;;;;;;;4.85;29.75;101087.22;4344252;33;33311;-86
2022/03/13 07:52:35;;;;;;;15.40;6.82;;;;;;;4.78;29.44;101095.91;4338248;33;33717;-86
2022/03/13 07:55:03;;;;;;;11.93;6.70;;;;;;;4.71;29.45;101100.28;4332473;33;34155;-86
2022/03/13 07:57:31;;;;;;;15.13;7.57;;;;;;;4.91;29.33;101099.44;4345373;33;33324;-86
2022/03/13 07:59:58;;;;;;;11.27;5.50;;;;;;;4.74;27.72;101105.50;4344772;33;33061;-85
2022/03/13 08:02:26;;;;;;;11.90;5.53;;;;;;;4.99;27.34;101100.31;4357107;32;34665;-85
2022/03/13 08:04:54;;;;;;;10.27;5.45;;;;;;;4.90;26.44;101100.31;4345563;33;35337;-85
2022/03/13 08:07:22;;;;;;;8.93;5.68;;;;;;;5.52;27.19;101096.75;4345498;33;34614;-85
2022/03/13 08:09:50;;;;;;;15.07;5.18;;;;;;;5.59;26.73;101095.84;4345288;33;33940;-85
2022/03/13 08:12:18;;;;;;;12.27;5.95;;;;;;;5.85;27.81;101099.25;4337358;33;34732;-85
2022/03/13 08:14:46;;;;;;;13.23;6.87;;;;;;;6.49;26.70;101086.72;4332251;32;32949;-86
2022/03/13 08:17:15;;;;;;;20.08;7.10;;;;;;;6.55;27.13;101090.19;4344929;32;32516;-87
2022/03/13 08:19:43;;;;;;;11.10;6.40;;;;;;;6.70;25.66;101091.84;4363981;32;32899;-86
2022/03/13 08:22:11;;;;;;;12.82;6.28;;;;;;;7.11;24.91;101085.38;4343999;32;35204;-86
2022/03/13 08:24:40;;;;;;;11.38;6.50;;;;;;;7.46;24.36;101077.16;4342361;32;32981;-86
2022/03/13 08:27:08;;;;;;;18.83;7.72;;;;;;;7.48;25.18;101075.38;4331778;33;32976;-85
2022/03/13 08:29:36;;;;;;;13.45;7.57;;;;;;;7.75;24.52;101079.47;4332168;33;34102;-85
2022/03/13 08:32:05;;;;;;;16.05;6.70;;;;;;;7.61;23.97;101084.00;4350575;32;33928;-86
2022/03/13 08:34:44;;;;;;;13.13;6.82;;;;;;;7.81;23.98;101084.66;4345692;32;32692;-86
2022/03/13 08:37:15;;;;;;;12.05;6.43;;;;;;;8.34;22.79;101069.91;4346721;32;33258;-86
2022/03/13 08:39:43;;;;;;;11.65;6.15;;;;;;;8.14;22.41;101069.31;4345065;32;34084;-86
2022/03/13 08:42:11;;;;;;;11.15;6.32;;;;;;;7.96;23.57;101071.31;4339238;33;34443;-85
2022/03/13 08:44:39;;;;;;;11.85;6.12;;;;;;;7.78;22.79;101068.91;4327140;33;32447;-85
2022/03/13 08:47:09;;;;;;;8.50;4.75;;;;;;;8.20;22.62;101062.22;4337052;32;32731;-86
2022/03/13 08:49:36;;;;;;;9.48;5.75;;;;;;;8.24;20.96;101062.19;4358453;32;33965;-85
2022/03/13 08:52:05;;;;;;;10.68;5.30;;;;;;;8.75;21.25;101060.56;4345634;33;34783;-85
2022/03/13 08:54:32;;;;;;;8.02;4.80;;;;;;;9.14;20.65;101061.66;4358372;32;33112;-85
2022/03/13 08:57:01;;;;;;;9.18;4.85;;;;;;;9.29;20.16;101057.87;4333555;33;33204;-85
2022/03/13 08:59:30;;;;;;;8.20;4.53;;;;;;;9.71;20.16;101055.31;4357778;32;34366;-83
2022/03/13 09:01:58;;;;;;;10.75;4.90;;;;;;;9.55;19.46;101057.37;4341533;33;34390;-86
2022/03/13 09:04:27;;;;;;;8.45;4.60;;;;;;;9.47;19.98;101057.53;4341124;33;33322;-83
2022/03/13 09:06:54;;;;;;;9.02;5.20;;;;;;;9.88;20.95;101058.47;4355007;32;33808;-85
2022/03/13 09:09:27;;;;;;;8.98;4.93;;;;;;;9.51;19.64;101046.94;4321605;33;32966;-85
2022/03/13 09:11:56;;;;;;;;;;;;;;;10.04;18.80;101047.59;4352431;32;34206;-85
2022/03/13 09:14:26;;;;;;;6.55;3.85;;;;;;;10.21;18.81;101045.47;4357848;32;33961;-86
2022/03/13 09:16:53;;;;;;;5.93;3.97;;;;;;;9.82;18.56;101050.66;4345406;33;33258;-85
2022/03/13 09:19:21;;;;;;;8.85;4.45;;;;;;;9.35;18.38;101051.59;4358106;32;33097;-85
2022/03/13 09:21:49;;;;;;;5.95;4.40;;;;;;;9.92;19.17;101052.25;4370239;32;32636;-85
2022/03/13 09:24:16;;;;;;;6.53;4.18;;;;;;;10.23;17.74;101035.72;4333687;33;32280;-86
2022/03/13 09:26:45;;;;;;;7.55;4.53;;;;;;;10.12;17.59;101035.12;4347466;33;33868;-85
2022/03/13 09:29:13;;;;;;;8.30;4.97;;;;;;;10.12;18.76;101046.53;4346341;32;34208;-86
2022/03/13 09:31:41;;;;;;;7.07;4.60;;;;;;;10.42;18.59;101038.84;4334625;33;33117;-86
2022/03/13 09:34:09;;;;;;;7.80;4.47;;;;;;;10.12;17.85;101035.97;4334288;33;33523;-86
2022/03/13 09:36:37;;;;;;;6.07;4.10;;;;;;;9.90;18.41;101042.59;4344028;32;33244;-86
2022/03/13 09:39:06;;;;;;;10.65;5.05;;;;;;;10.10;19.33;101043.03;4343794;32;32889;-86
2022/03/13 09:41:34;;;;;;;8.43;4.30;;;;;;;10.68;18.60;101033.81;4331970;33;34331;-86
2022/03/13 09:44:02;;;;;;;8.25;4.90;;;;;;;10.68;17.62;101031.19;4345943;32;33864;-86
2022/03/13 09:46:30;;;;;;;9.80;5.50;;;;;;;11.01;17.18;101034.75;4324837;33;32468;-85
2022/03/13 09:49:00;;;;;;;10.07;5.22;;;;;;;11.23;16.74;101029.75;4346533;32;33427;-86
2022/03/13 09:51:28;;;;;;;11.60;5.20;;;;;;;10.95;17.39;101024.31;4334152;33;33893;-86
2022/03/13 09:53:57;;;;;;;13.18;5.65;;;;;;;10.49;18.35;101033.41;4358342;32;34518;-86
2022/03/13 09:56:24;;;;;;;12.63;6.75;;;;;;;10.48;17.29;101015.78;4333947;33;33102;-86
2022/03/13 09:58:53;;;;;;;14.05;6.90;;;;;;;10.79;17.23;101001.84;4358414;32;33282;-85
2022/03/13 10:01:20;;;;;;;10.82;6.93;;;;;;;10.79;18.58;101001.84;4346242;32;33741;-86
2022/03/13 10:03:48;;;;;;;10.38;7.32;;;;;;;10.51;18.04;101004.31;4356053;32;34087;-86
2022/03/13 10:06:16;;;;;;;15.75;6.57;;;;;;;11.02;18.55;101010.06;4356522;32;33159;-86
2022/03/13 10:08:44;;;;;;;22.00;6.15;;;;;;;10.80;18.46;101010.63;4333556;33;32395;-86
2022/03/13 10:11:13;;;;;;;9.20;6.18;;;;;;;10.68;17.80;101006.50;4331683;33;33148;-86
2022/03/13 10:13:42;;;;;;;11.35;6.80;;;;;;;11.08;17.68;101002.87;4345597;32;32485;-87
2022/03/13 10:16:22;;;;;;;10.73;5.53;;;;;;;11.22;18.86;100998.06;4345925;33;33436;-86
2022/03/13 10:18:50;;;;;;;8.88;4.53;;;;;;;11.26;17.78;100997.94;4340969;32;32233;-85
2022/03/13 10:21:18;;;;;;;7.82;4.70;;;;;;;11.67;15.96;100997.69;4346548;33;33463;-86
2022/03/13 10:23:48;;;;;;;14.18;5.55;;;;;;;12.07;17.21;100993.88;4346265;32;34201;-86
2022/03/13 10:26:17;;;;;;;11.07;5.70;;;;;;;12.79;15.89;100984.47;4346462;33;34690;-86
2022/03/13 10:28:44;;;;;;;8.98;4.70;;;;;;;13.04;16.30;100988.00;4350736;32;33536;-86
2022/03/13 10:31:15;;;;;;;7.10;4.75;;;;;;;12.44;16.13;100983.88;4346628;33;34746;-86
2022/03/13 10:34:02;;;;;;;9.45;5.25;;;;;;;12.31;16.29;100987.81;4347825;32;32330;-85
2022/03/13 10:36:44;;;;;;;10.30;6.82;;;;;;;12.73;15.59;100984.69;4334562;33;33043;-86
2022/03/13 10:39:18;;;;;;;11.38;7.00;;;;;;;12.36;17.00;100985.03;4350110;32;33956;-86
2022/03/13 10:41:45;;;;;;;17.48;7.30;;;;;;;13.09;15.10;100982.53;4356249;32;34957;-86
2022/03/13 10:44:18;;;;;;;12.95;7.15;;;;;;;13.20;14.68;100987.47;4362760;32;32722;-85
2022/03/13 10:46:53;;;;;;;15.10;7.55;;;;;;;13.21;16.19;100978.59;4333291;33;32953;-85
2022/03/13 10:49:32;;;;;;;14.13;8.50;;;;;;;13.13;17.28;100985.94;4344822;33;34629;-86
2022/03/13 10:52:01;;;;;;;11.85;7.47;;;;;;;12.33;16.60;100982.47;4353738;32;33984;-86
2022/03/13 10:54:36;;;;;;;12.55;7.28;;;;;;;12.36;16.47;100972.66;4345865;33;34420;-86
2022/03/13 10:57:09;;;;;;;12.37;6.70;;;;;;;12.47;17.76;100981.09;4357799;32;34505;-85
2022/03/13 10:59:39;;;;;;;12.10;7.03;;;;;;;12.84;15.96;100965.75;4333891;33;32509;-86
2022/03/13 11:02:17;;;;;;;12.48;7.20;;;;;;;13.14;17.80;100971.75;4346857;32;34881;-85
2022/03/13 11:04:50;;;;;;;10.70;6.28;;;;;;;13.58;16.21;100963.09;4335893;32;35415;-86
2022/03/13 11:07:19;;;;;;;9.50;6.22;;;;;;;12.86;16.61;100966.56;4344460;33;34644;-86
2022/03/13 11:09:48;;;;;;;10.98;5.93;;;;;;;12.70;17.66;100961.78;4358147;32;33860;-85
2022/03/13 11:12:23;;;;;;;12.37;6.03;;;;;;;12.98;16.82;100968.78;4345242;32;33747;-87
2022/03/13 11:14:53;;;;;;;9.38;5.28;;;;;;;12.94;16.65;100965.38;4338318;32;33476;-86
2022/03/13 11:17:24;;;;;;;9.23;5.78;;;;;;;13.32;17.86;100964.03;4332305;32;33916;-86
2022/03/13 11:19:55;;;;;;;13.85;6.40;;;;;;;13.32;16.41;100965.84;4345717;32;33657;-86
2022/03/13 11:22:23;;;;;;;8.73;5.97;;;;;;;13.23;15.36;100959.06;4358077;32;32778;-86
2022/03/13 11:24:53;;;;;;;11.85;6.10;;;;;;;13.65;16.51;100946.94;4356894;32;33179;-86
2022/03/13 11:27:25;;;;;;;7.75;5.25;;;;;;;14.15;15.25;100939.66;4333519;32;31413;-86
2022/03/13 11:29:54;;;;;;;9.77;6.07;;;;;;;14.73;14.05;100934.59;4334407;33;33618;-84
2022/03/13 11:32:37;;;;;;;9.65;5.87;;;;;;;13.90;15.15;100945.03;4331819;33;32674;-87